CCA126 RKSI-ZBAA
Flight info
| Callsign | CCA126 |
|---|---|
| Flight time | 1h 37m |
| Altitude | 30100 |
| Route | NOPIK Y697 AGAVO/K0863S0920 A591 IKEKA W4 HCH W200 DOVIV W55 DUMAP |
| Aircraft | A321/M-SDE3FGHIRWY/LB1 |
Departure
| Time | 2026-05-01 10:05 |
|---|---|
| Airport | Incheon International Airport (RKSI) |
Arrival
| Time | 2026-05-01 11:42 |
|---|---|
| Airport | Beijing Capital International Airport (ZBAA) |
| Time | Latitude | Longitude | Altitude | Speed | Heading |
|---|---|---|---|---|---|
| 2026-05-01 09:42 | 37.45100 | 126.44526 | 33 ft | 0 kts | 141° |
| 2026-05-01 09:53 | 37.45102 | 126.44524 | 33 ft | 1 kts | 141° |
| 2026-05-01 09:54 | 37.45116 | 126.44510 | 33 ft | 3 kts | 141° |
| 2026-05-01 09:54 | 37.45132 | 126.44494 | 30 ft | 3 kts | 141° |
| 2026-05-01 09:54 | 37.45148 | 126.44478 | 31 ft | 3 kts | 141° |
| 2026-05-01 09:54 | 37.45162 | 126.44465 | 30 ft | 3 kts | 160° |
| 2026-05-01 09:55 | 37.45178 | 126.44463 | 31 ft | 3 kts | 214° |
| 2026-05-01 09:55 | 37.45191 | 126.44480 | 30 ft | 3 kts | 236° |
| 2026-05-01 09:55 | 37.45198 | 126.44492 | 31 ft | 0 kts | 234° |
| 2026-05-01 09:59 | 37.45197 | 126.44491 | 31 ft | 1 kts | 234° |
| 2026-05-01 09:59 | 37.45183 | 126.44466 | 33 ft | 6 kts | 234° |
| 2026-05-01 09:59 | 37.45147 | 126.44403 | 33 ft | 12 kts | 234° |
| 2026-05-01 10:00 | 37.45090 | 126.44300 | 33 ft | 16 kts | 234° |
| 2026-05-01 10:00 | 37.45033 | 126.44200 | 33 ft | 12 kts | 234° |
| 2026-05-01 10:00 | 37.44993 | 126.44129 | 33 ft | 6 kts | 234° |
| 2026-05-01 10:00 | 37.44967 | 126.44091 | 32 ft | 6 kts | 219° |
| 2026-05-01 10:01 | 37.44924 | 126.44082 | 33 ft | 7 kts | 166° |
| 2026-05-01 10:01 | 37.44874 | 126.44121 | 33 ft | 10 kts | 145° |
| 2026-05-01 10:01 | 37.44807 | 126.44179 | 33 ft | 15 kts | 144° |
| 2026-05-01 10:01 | 37.44711 | 126.44265 | 32 ft | 17 kts | 144° |
| 2026-05-01 10:02 | 37.44616 | 126.44350 | 33 ft | 16 kts | 144° |
| 2026-05-01 10:02 | 37.44527 | 126.44420 | 31 ft | 14 kts | 167° |
| 2026-05-01 10:02 | 37.44458 | 126.44356 | 33 ft | 13 kts | 234° |
| 2026-05-01 10:02 | 37.44420 | 126.44290 | 33 ft | 4 kts | 235° |
| 2026-05-01 10:03 | 37.44402 | 126.44258 | 33 ft | 6 kts | 235° |
| 2026-05-01 10:03 | 37.44368 | 126.44197 | 31 ft | 10 kts | 234° |
| 2026-05-01 10:03 | 37.44372 | 126.44148 | 33 ft | 0 kts | 324° |
| 2026-05-01 10:04 | 37.44388 | 126.44134 | 33 ft | 14 kts | 324° |
| 2026-05-01 10:04 | 37.44673 | 126.43877 | 33 ft | 84 kts | 324° |
| 2026-05-01 10:04 | 37.45314 | 126.43310 | 31 ft | 139 kts | 324° |
| 2026-05-01 10:04 | 37.46222 | 126.42502 | 64 ft | 176 kts | 324° |
| 2026-05-01 10:05 | 37.47211 | 126.41645 | 721 ft | 169 kts | 316° |
| 2026-05-01 10:05 | 37.48015 | 126.40592 | 1340 ft | 167 kts | 306° |
| 2026-05-01 10:05 | 37.48754 | 126.39464 | 1869 ft | 170 kts | 305° |
| 2026-05-01 10:05 | 37.49542 | 126.38233 | 2041 ft | 191 kts | 306° |
| 2026-05-01 10:06 | 37.50304 | 126.36764 | 2165 ft | 211 kts | 287° |
| 2026-05-01 10:06 | 37.50470 | 126.34842 | 2352 ft | 233 kts | 272° |
| 2026-05-01 10:06 | 37.50515 | 126.32753 | 2889 ft | 243 kts | 272° |
| 2026-05-01 10:06 | 37.50555 | 126.30589 | 3477 ft | 251 kts | 273° |
| 2026-05-01 10:07 | 37.50596 | 126.28374 | 4148 ft | 255 kts | 273° |
| 2026-05-01 10:07 | 37.50640 | 126.26129 | 4832 ft | 259 kts | 274° |
| 2026-05-01 10:07 | 37.50687 | 126.23849 | 5491 ft | 262 kts | 275° |
| 2026-05-01 10:07 | 37.50738 | 126.21584 | 6207 ft | 263 kts | 275° |
| 2026-05-01 10:08 | 37.50119 | 126.16995 | 7475 ft | 278 kts | 247° |
| 2026-05-01 10:08 | 37.49086 | 126.14908 | 8107 ft | 283 kts | 241° |
| 2026-05-01 10:08 | 37.47994 | 126.12830 | 8745 ft | 286 kts | 241° |
| 2026-05-01 10:09 | 37.46889 | 126.10729 | 9373 ft | 289 kts | 242° |
| 2026-05-01 10:09 | 37.45772 | 126.08604 | 9977 ft | 292 kts | 242° |
| 2026-05-01 10:09 | 37.44633 | 126.06435 | 10298 ft | 306 kts | 242° |
| 2026-05-01 10:09 | 37.43426 | 126.04124 | 10428 ft | 325 kts | 241° |
| 2026-05-01 10:10 | 37.42218 | 126.01635 | 10556 ft | 340 kts | 248° |
| 2026-05-01 10:10 | 37.41309 | 125.98836 | 10683 ft | 352 kts | 257° |
| 2026-05-01 10:10 | 37.40684 | 125.92614 | 11263 ft | 364 kts | 273° |
| 2026-05-01 10:11 | 37.40655 | 125.89413 | 11778 ft | 367 kts | 273° |
| 2026-05-01 10:11 | 37.40620 | 125.86200 | 12301 ft | 369 kts | 273° |
| 2026-05-01 10:11 | 37.40578 | 125.82961 | 12814 ft | 371 kts | 273° |
| 2026-05-01 10:11 | 37.40534 | 125.79706 | 13315 ft | 374 kts | 273° |
| 2026-05-01 10:12 | 37.40492 | 125.76431 | 13797 ft | 376 kts | 273° |
| 2026-05-01 10:12 | 37.40448 | 125.73135 | 14234 ft | 378 kts | 273° |
| 2026-05-01 10:12 | 37.40354 | 125.66503 | 15084 ft | 381 kts | 272° |
| 2026-05-01 10:13 | 37.40306 | 125.63164 | 15492 ft | 382 kts | 273° |
| 2026-05-01 10:13 | 37.40260 | 125.59813 | 15876 ft | 384 kts | 273° |
| 2026-05-01 10:13 | 37.40215 | 125.56447 | 16250 ft | 386 kts | 273° |
| 2026-05-01 10:14 | 37.40120 | 125.49670 | 16988 ft | 389 kts | 272° |
| 2026-05-01 10:14 | 37.40072 | 125.46257 | 17355 ft | 391 kts | 272° |
| 2026-05-01 10:14 | 37.40021 | 125.42831 | 17724 ft | 393 kts | 272° |
| 2026-05-01 10:14 | 37.39970 | 125.39392 | 18094 ft | 395 kts | 272° |
| 2026-05-01 10:15 | 37.39918 | 125.35932 | 18433 ft | 396 kts | 272° |
| 2026-05-01 10:15 | 37.39862 | 125.32467 | 18778 ft | 397 kts | 272° |
| 2026-05-01 10:15 | 37.39800 | 125.28988 | 19127 ft | 398 kts | 272° |
| 2026-05-01 10:15 | 37.39737 | 125.25504 | 19493 ft | 399 kts | 272° |
| 2026-05-01 10:16 | 37.39676 | 125.22013 | 19861 ft | 399 kts | 272° |
| 2026-05-01 10:16 | 37.39619 | 125.18521 | 20235 ft | 400 kts | 273° |
| 2026-05-01 10:16 | 37.39509 | 125.11513 | 20972 ft | 402 kts | 273° |
| 2026-05-01 10:17 | 37.39451 | 125.08043 | 21331 ft | 403 kts | 273° |
| 2026-05-01 10:17 | 37.39320 | 125.00989 | 22001 ft | 405 kts | 273° |
| 2026-05-01 10:17 | 37.39249 | 124.97443 | 22341 ft | 406 kts | 273° |
| 2026-05-01 10:18 | 37.39110 | 124.90330 | 23007 ft | 408 kts | 273° |
| 2026-05-01 10:18 | 37.39041 | 124.86759 | 23341 ft | 409 kts | 273° |
| 2026-05-01 10:18 | 37.38972 | 124.83179 | 23640 ft | 410 kts | 273° |
| 2026-05-01 10:19 | 37.38899 | 124.79588 | 23927 ft | 411 kts | 273° |
| 2026-05-01 10:19 | 37.38823 | 124.76000 | 24221 ft | 411 kts | 273° |
| 2026-05-01 10:19 | 37.38745 | 124.72404 | 24515 ft | 411 kts | 273° |
| 2026-05-01 10:20 | 37.38588 | 124.65202 | 25073 ft | 412 kts | 273° |
| 2026-05-01 10:20 | 37.38511 | 124.61600 | 25344 ft | 412 kts | 273° |
| 2026-05-01 10:20 | 37.38434 | 124.57996 | 25602 ft | 413 kts | 273° |
| 2026-05-01 10:20 | 37.38353 | 124.54388 | 25837 ft | 413 kts | 273° |
| 2026-05-01 10:21 | 37.38267 | 124.50780 | 26076 ft | 413 kts | 273° |
| 2026-05-01 10:21 | 37.37810 | 124.43558 | 26472 ft | 421 kts | 263° |
| 2026-05-01 10:21 | 37.36923 | 124.40020 | 26658 ft | 429 kts | 253° |
| 2026-05-01 10:22 | 37.33877 | 124.33427 | 27001 ft | 439 kts | 245° |
| 2026-05-01 10:22 | 37.30626 | 124.26977 | 27496 ft | 435 kts | 245° |
| 2026-05-01 10:23 | 37.29010 | 124.23767 | 27756 ft | 433 kts | 245° |
| 2026-05-01 10:23 | 37.25809 | 124.17393 | 28234 ft | 430 kts | 245° |
| 2026-05-01 10:23 | 37.24215 | 124.14224 | 28475 ft | 428 kts | 245° |
| 2026-05-01 10:24 | 37.20981 | 124.07967 | 28958 ft | 427 kts | 243° |
| 2026-05-01 10:24 | 37.17659 | 124.01823 | 29427 ft | 424 kts | 243° |
| 2026-05-01 10:25 | 37.14392 | 123.95703 | 29872 ft | 420 kts | 244° |
| 2026-05-01 10:25 | 37.11250 | 123.89562 | 30041 ft | 415 kts | 245° |
| 2026-05-01 10:26 | 37.08170 | 123.83531 | 30039 ft | 413 kts | 244° |
| 2026-05-01 10:27 | 37.01928 | 123.71453 | 30012 ft | 413 kts | 244° |
| 2026-05-01 10:28 | 36.97221 | 123.62395 | 30040 ft | 414 kts | 244° |
| 2026-05-01 10:28 | 36.92507 | 123.53351 | 30049 ft | 414 kts | 244° |
| 2026-05-01 10:29 | 36.87787 | 123.44317 | 30039 ft | 414 kts | 244° |
| 2026-05-01 10:30 | 36.85153 | 123.38059 | 30052 ft | 401 kts | 258° |
| 2026-05-01 10:30 | 36.84510 | 123.31296 | 30051 ft | 390 kts | 277° |
| 2026-05-01 10:31 | 36.87300 | 123.18295 | 30051 ft | 388 kts | 287° |
| 2026-05-01 10:32 | 36.89630 | 123.08598 | 30055 ft | 389 kts | 287° |
| 2026-05-01 10:33 | 36.92463 | 122.96753 | 30059 ft | 389 kts | 287° |
| 2026-05-01 10:34 | 36.94781 | 122.87045 | 30056 ft | 389 kts | 286° |
| 2026-05-01 10:34 | 36.96581 | 122.79523 | 30052 ft | 389 kts | 286° |
| 2026-05-01 10:35 | 36.98636 | 122.70852 | 30053 ft | 389 kts | 286° |
| 2026-05-01 10:35 | 37.00168 | 122.64368 | 30055 ft | 389 kts | 286° |
| 2026-05-01 10:36 | 37.02461 | 122.54637 | 30046 ft | 389 kts | 286° |
| 2026-05-01 10:37 | 37.03986 | 122.48140 | 30050 ft | 389 kts | 286° |
| 2026-05-01 10:37 | 37.06263 | 122.38388 | 30046 ft | 389 kts | 286° |
| 2026-05-01 10:38 | 37.08667 | 122.32334 | 30046 ft | 394 kts | 305° |
| 2026-05-01 10:38 | 37.12794 | 122.27721 | 30039 ft | 402 kts | 317° |
| 2026-05-01 10:39 | 37.17032 | 122.23295 | 30041 ft | 395 kts | 306° |
| 2026-05-01 10:39 | 37.19741 | 122.17432 | 30038 ft | 388 kts | 288° |
| 2026-05-01 10:40 | 37.21414 | 122.10995 | 30038 ft | 389 kts | 287° |
| 2026-05-01 10:40 | 37.23092 | 122.04545 | 30035 ft | 389 kts | 287° |
| 2026-05-01 10:41 | 37.24768 | 121.98100 | 30041 ft | 389 kts | 287° |
| 2026-05-01 10:42 | 37.27276 | 121.88422 | 30040 ft | 389 kts | 287° |
| 2026-05-01 10:42 | 37.28930 | 121.81960 | 30040 ft | 389 kts | 287° |
| 2026-05-01 10:43 | 37.30579 | 121.75498 | 30045 ft | 388 kts | 287° |
| 2026-05-01 10:43 | 37.32230 | 121.69037 | 30043 ft | 389 kts | 287° |
| 2026-05-01 10:44 | 37.33885 | 121.62566 | 30036 ft | 389 kts | 287° |
| 2026-05-01 10:44 | 37.35530 | 121.56101 | 30043 ft | 388 kts | 287° |
| 2026-05-01 10:45 | 37.37171 | 121.49633 | 30037 ft | 388 kts | 287° |
| 2026-05-01 10:45 | 37.38809 | 121.43158 | 30034 ft | 389 kts | 287° |
| 2026-05-01 10:46 | 37.40442 | 121.36678 | 30038 ft | 389 kts | 287° |
| 2026-05-01 10:46 | 37.42072 | 121.30192 | 30030 ft | 389 kts | 287° |
| 2026-05-01 10:47 | 37.43706 | 121.23706 | 30034 ft | 389 kts | 287° |
| 2026-05-01 10:47 | 37.45328 | 121.17261 | 30029 ft | 389 kts | 287° |
| 2026-05-01 10:48 | 37.47243 | 121.10886 | 30027 ft | 390 kts | 290° |
| 2026-05-01 10:48 | 37.49341 | 121.04591 | 30030 ft | 390 kts | 291° |
| 2026-05-01 10:49 | 37.51410 | 120.98278 | 30030 ft | 390 kts | 290° |
| 2026-05-01 10:49 | 37.53427 | 120.91936 | 30012 ft | 390 kts | 290° |
| 2026-05-01 10:50 | 37.55433 | 120.85581 | 30006 ft | 391 kts | 290° |
| 2026-05-01 10:50 | 37.57439 | 120.79214 | 30011 ft | 391 kts | 290° |
| 2026-05-01 10:51 | 37.59450 | 120.72849 | 30007 ft | 391 kts | 290° |
| 2026-05-01 10:51 | 37.61533 | 120.66508 | 30021 ft | 391 kts | 291° |
| 2026-05-01 10:52 | 37.63637 | 120.60177 | 30018 ft | 391 kts | 291° |
| 2026-05-01 10:52 | 37.65799 | 120.53874 | 30018 ft | 393 kts | 296° |
| 2026-05-01 10:53 | 37.68524 | 120.47888 | 30023 ft | 393 kts | 297° |
| 2026-05-01 10:53 | 37.71257 | 120.41905 | 30022 ft | 393 kts | 297° |
| 2026-05-01 10:54 | 37.73990 | 120.35917 | 30013 ft | 394 kts | 297° |
| 2026-05-01 10:54 | 37.76723 | 120.29912 | 30006 ft | 394 kts | 297° |
| 2026-05-01 10:55 | 37.79448 | 120.23889 | 30012 ft | 395 kts | 297° |
| 2026-05-01 10:55 | 37.82172 | 120.17862 | 30013 ft | 395 kts | 297° |
| 2026-05-01 10:56 | 37.84906 | 120.11833 | 30024 ft | 395 kts | 297° |
| 2026-05-01 10:56 | 37.87634 | 120.05797 | 30021 ft | 395 kts | 296° |
| 2026-05-01 10:57 | 37.90356 | 119.99743 | 30008 ft | 396 kts | 296° |
| 2026-05-01 10:57 | 37.93061 | 119.93721 | 30018 ft | 396 kts | 296° |
| 2026-05-01 10:58 | 37.95780 | 119.87658 | 30014 ft | 396 kts | 296° |
| 2026-05-01 10:58 | 37.98501 | 119.81584 | 30031 ft | 396 kts | 296° |
| 2026-05-01 10:59 | 38.01217 | 119.75512 | 30036 ft | 396 kts | 296° |
| 2026-05-01 10:59 | 38.03926 | 119.69434 | 30038 ft | 395 kts | 296° |
| 2026-05-01 11:00 | 38.06627 | 119.63359 | 30039 ft | 395 kts | 296° |
| 2026-05-01 11:00 | 38.09324 | 119.57285 | 30026 ft | 395 kts | 296° |
| 2026-05-01 11:01 | 38.11822 | 119.51100 | 30037 ft | 392 kts | 290° |
| 2026-05-01 11:01 | 38.13911 | 119.44692 | 30026 ft | 393 kts | 290° |
| 2026-05-01 11:02 | 38.16005 | 119.38280 | 30024 ft | 393 kts | 290° |
| 2026-05-01 11:02 | 38.18090 | 119.31860 | 30024 ft | 393 kts | 290° |
| 2026-05-01 11:03 | 38.20168 | 119.25434 | 30021 ft | 393 kts | 290° |
| 2026-05-01 11:03 | 38.22254 | 119.19004 | 30023 ft | 394 kts | 290° |
| 2026-05-01 11:04 | 38.24339 | 119.12567 | 30020 ft | 394 kts | 289° |
| 2026-05-01 11:04 | 38.26415 | 119.06119 | 30021 ft | 394 kts | 289° |
| 2026-05-01 11:05 | 38.28480 | 118.99662 | 30017 ft | 394 kts | 289° |
| 2026-05-01 11:05 | 38.30546 | 118.93199 | 30017 ft | 394 kts | 289° |
| 2026-05-01 11:06 | 38.32615 | 118.86733 | 30012 ft | 394 kts | 289° |
| 2026-05-01 11:06 | 38.34686 | 118.80268 | 30013 ft | 394 kts | 289° |
| 2026-05-01 11:07 | 38.37769 | 118.70600 | 30014 ft | 394 kts | 289° |
| 2026-05-01 11:07 | 38.39837 | 118.64119 | 29413 ft | 396 kts | 289° |
| 2026-05-01 11:08 | 38.40872 | 118.60881 | 28765 ft | 391 kts | 290° |
| 2026-05-01 11:08 | 38.41891 | 118.57693 | 28219 ft | 385 kts | 290° |
| 2026-05-01 11:08 | 38.43908 | 118.51351 | 27093 ft | 400 kts | 290° |
| 2026-05-01 11:09 | 38.44969 | 118.47986 | 26492 ft | 416 kts | 290° |
| 2026-05-01 11:09 | 38.46061 | 118.44526 | 25831 ft | 424 kts | 290° |
| 2026-05-01 11:09 | 38.47171 | 118.41023 | 25119 ft | 428 kts | 290° |
| 2026-05-01 11:10 | 38.49439 | 118.33870 | 23564 ft | 438 kts | 291° |
| 2026-05-01 11:10 | 38.50577 | 118.30264 | 22706 ft | 437 kts | 291° |
| 2026-05-01 11:10 | 38.51710 | 118.26672 | 21988 ft | 434 kts | 291° |
| 2026-05-01 11:10 | 38.52831 | 118.23111 | 21296 ft | 430 kts | 291° |
| 2026-05-01 11:11 | 38.53943 | 118.19581 | 20632 ft | 426 kts | 291° |
| 2026-05-01 11:11 | 38.55039 | 118.16084 | 19979 ft | 423 kts | 291° |
| 2026-05-01 11:11 | 38.56124 | 118.12610 | 19347 ft | 419 kts | 290° |
| 2026-05-01 11:11 | 38.57193 | 118.09169 | 18721 ft | 415 kts | 290° |
| 2026-05-01 11:12 | 38.58256 | 118.05749 | 18112 ft | 412 kts | 290° |
| 2026-05-01 11:12 | 38.59312 | 118.02361 | 17481 ft | 409 kts | 291° |
| 2026-05-01 11:12 | 38.60413 | 117.99014 | 17194 ft | 408 kts | 292° |
| 2026-05-01 11:12 | 38.61567 | 117.95702 | 16935 ft | 407 kts | 293° |
| 2026-05-01 11:13 | 38.62747 | 117.92415 | 16674 ft | 406 kts | 294° |
| 2026-05-01 11:13 | 38.63932 | 117.89141 | 16418 ft | 404 kts | 293° |
| 2026-05-01 11:13 | 38.65103 | 117.85878 | 16166 ft | 403 kts | 293° |
| 2026-05-01 11:13 | 38.66259 | 117.82608 | 15915 ft | 403 kts | 293° |
| 2026-05-01 11:14 | 38.67403 | 117.79340 | 15662 ft | 401 kts | 292° |
| 2026-05-01 11:14 | 38.68535 | 117.76088 | 15584 ft | 399 kts | 292° |
| 2026-05-01 11:14 | 38.69651 | 117.72878 | 15604 ft | 400 kts | 292° |
| 2026-05-01 11:14 | 38.70781 | 117.69620 | 15604 ft | 400 kts | 292° |
| 2026-05-01 11:15 | 38.71905 | 117.66366 | 15603 ft | 399 kts | 292° |
| 2026-05-01 11:15 | 38.73026 | 117.63118 | 15603 ft | 398 kts | 292° |
| 2026-05-01 11:15 | 38.74147 | 117.59871 | 15604 ft | 398 kts | 292° |
| 2026-05-01 11:15 | 38.75266 | 117.56632 | 15604 ft | 398 kts | 292° |
| 2026-05-01 11:16 | 38.76388 | 117.53387 | 15602 ft | 398 kts | 292° |
| 2026-05-01 11:16 | 38.77513 | 117.50137 | 15601 ft | 399 kts | 292° |
| 2026-05-01 11:16 | 38.78634 | 117.46887 | 15601 ft | 399 kts | 292° |
| 2026-05-01 11:16 | 38.79754 | 117.43628 | 15598 ft | 400 kts | 292° |
| 2026-05-01 11:17 | 38.80878 | 117.40356 | 15598 ft | 401 kts | 292° |
| 2026-05-01 11:17 | 38.82001 | 117.37084 | 15597 ft | 401 kts | 292° |
| 2026-05-01 11:17 | 38.83124 | 117.33812 | 15595 ft | 401 kts | 292° |
| 2026-05-01 11:17 | 38.84352 | 117.30598 | 15592 ft | 402 kts | 300° |
| 2026-05-01 11:18 | 38.86032 | 117.27738 | 15594 ft | 404 kts | 311° |
| 2026-05-01 11:18 | 38.88149 | 117.25361 | 15596 ft | 406 kts | 323° |
| 2026-05-01 11:18 | 38.90620 | 117.23598 | 15593 ft | 409 kts | 335° |
| 2026-05-01 11:18 | 38.93312 | 117.22380 | 15594 ft | 410 kts | 339° |
| 2026-05-01 11:19 | 38.96016 | 117.21207 | 15592 ft | 410 kts | 339° |
| 2026-05-01 11:19 | 38.98720 | 117.20020 | 15592 ft | 410 kts | 339° |
| 2026-05-01 11:19 | 39.01416 | 117.18823 | 15594 ft | 410 kts | 339° |
| 2026-05-01 11:19 | 39.04113 | 117.17622 | 15581 ft | 411 kts | 338° |
| 2026-05-01 11:20 | 39.06809 | 117.16419 | 15402 ft | 409 kts | 339° |
| 2026-05-01 11:20 | 39.09497 | 117.15221 | 15261 ft | 409 kts | 339° |
| 2026-05-01 11:20 | 39.12186 | 117.14024 | 15117 ft | 408 kts | 339° |
| 2026-05-01 11:20 | 39.14867 | 117.12836 | 14970 ft | 407 kts | 339° |
| 2026-05-01 11:21 | 39.16642 | 117.12052 | 14876 ft | 407 kts | 339° |
| 2026-05-01 11:21 | 39.19319 | 117.10869 | 14728 ft | 406 kts | 339° |
| 2026-05-01 11:21 | 39.21988 | 117.09685 | 14586 ft | 406 kts | 339° |
| 2026-05-01 11:21 | 39.24657 | 117.08496 | 14442 ft | 405 kts | 339° |
| 2026-05-01 11:22 | 39.27316 | 117.07311 | 14299 ft | 404 kts | 339° |
| 2026-05-01 11:22 | 39.29972 | 117.06130 | 14159 ft | 404 kts | 339° |
| 2026-05-01 11:22 | 39.32623 | 117.04950 | 14010 ft | 403 kts | 339° |
| 2026-05-01 11:22 | 39.35269 | 117.03768 | 13874 ft | 401 kts | 339° |
| 2026-05-01 11:23 | 39.37904 | 117.02589 | 13728 ft | 400 kts | 339° |
| 2026-05-01 11:23 | 39.40532 | 117.01413 | 13440 ft | 399 kts | 339° |
| 2026-05-01 11:23 | 39.43147 | 117.00241 | 13095 ft | 397 kts | 339° |
| 2026-05-01 11:23 | 39.45753 | 116.99074 | 12771 ft | 396 kts | 339° |
| 2026-05-01 11:24 | 39.48354 | 116.97906 | 12448 ft | 395 kts | 339° |
| 2026-05-01 11:24 | 39.50943 | 116.96744 | 12126 ft | 394 kts | 339° |
| 2026-05-01 11:24 | 39.56100 | 116.94422 | 11495 ft | 391 kts | 339° |
| 2026-05-01 11:25 | 39.58662 | 116.93268 | 11162 ft | 387 kts | 339° |
| 2026-05-01 11:25 | 39.63655 | 116.91714 | 10863 ft | 354 kts | 352° |
| 2026-05-01 11:25 | 39.66019 | 116.91364 | 10744 ft | 338 kts | 351° |
| 2026-05-01 11:26 | 39.68335 | 116.91016 | 10625 ft | 323 kts | 351° |
| 2026-05-01 11:26 | 39.72601 | 116.90371 | 10264 ft | 302 kts | 351° |
| 2026-05-01 11:26 | 39.74666 | 116.90057 | 10075 ft | 298 kts | 351° |
| 2026-05-01 11:27 | 39.76720 | 116.89744 | 9898 ft | 297 kts | 351° |
| 2026-05-01 11:27 | 39.78775 | 116.89428 | 9783 ft | 297 kts | 351° |
| 2026-05-01 11:27 | 39.80826 | 116.89115 | 9657 ft | 297 kts | 351° |
| 2026-05-01 11:27 | 39.82876 | 116.88805 | 9523 ft | 296 kts | 351° |
| 2026-05-01 11:28 | 39.84924 | 116.88496 | 9420 ft | 296 kts | 351° |
| 2026-05-01 11:28 | 39.86969 | 116.88190 | 9309 ft | 296 kts | 351° |
| 2026-05-01 11:28 | 39.89010 | 116.87884 | 9129 ft | 295 kts | 351° |
| 2026-05-01 11:29 | 39.93077 | 116.87262 | 8770 ft | 294 kts | 351° |
| 2026-05-01 11:29 | 39.95104 | 116.86952 | 8605 ft | 293 kts | 350° |
| 2026-05-01 11:29 | 39.99151 | 116.86335 | 8259 ft | 293 kts | 351° |
| 2026-05-01 11:30 | 40.01162 | 116.85970 | 8079 ft | 290 kts | 342° |
| 2026-05-01 11:30 | 40.02919 | 116.84799 | 7927 ft | 282 kts | 315° |
| 2026-05-01 11:30 | 40.04052 | 116.82783 | 7749 ft | 275 kts | 289° |
| 2026-05-01 11:30 | 40.04392 | 116.80375 | 7573 ft | 269 kts | 264° |
| 2026-05-01 11:31 | 40.04233 | 116.77945 | 7382 ft | 270 kts | 270° |
| 2026-05-01 11:31 | 40.04727 | 116.75591 | 7206 ft | 274 kts | 299° |
| 2026-05-01 11:31 | 40.06087 | 116.73843 | 7036 ft | 281 kts | 329° |
| 2026-05-01 11:31 | 40.07979 | 116.73155 | 6878 ft | 287 kts | 351° |
| 2026-05-01 11:32 | 40.09966 | 116.72867 | 6706 ft | 288 kts | 351° |
| 2026-05-01 11:32 | 40.11955 | 116.72569 | 6546 ft | 287 kts | 351° |
| 2026-05-01 11:32 | 40.13939 | 116.72265 | 6383 ft | 287 kts | 351° |
| 2026-05-01 11:32 | 40.15919 | 116.71958 | 6217 ft | 286 kts | 351° |
| 2026-05-01 11:33 | 40.17893 | 116.71650 | 6039 ft | 285 kts | 351° |
| 2026-05-01 11:33 | 40.19863 | 116.71344 | 5885 ft | 284 kts | 351° |
| 2026-05-01 11:33 | 40.21826 | 116.71040 | 5727 ft | 284 kts | 351° |
| 2026-05-01 11:33 | 40.23785 | 116.70737 | 5572 ft | 283 kts | 352° |
| 2026-05-01 11:34 | 40.25743 | 116.70433 | 5409 ft | 283 kts | 352° |
| 2026-05-01 11:34 | 40.27693 | 116.70130 | 5254 ft | 282 kts | 352° |
| 2026-05-01 11:34 | 40.29642 | 116.69827 | 5096 ft | 280 kts | 352° |
| 2026-05-01 11:34 | 40.31530 | 116.69532 | 4975 ft | 266 kts | 353° |
| 2026-05-01 11:35 | 40.33326 | 116.69251 | 4855 ft | 254 kts | 353° |
| 2026-05-01 11:35 | 40.35042 | 116.68865 | 4748 ft | 249 kts | 337° |
| 2026-05-01 11:35 | 40.36385 | 116.67541 | 4634 ft | 243 kts | 302° |
| 2026-05-01 11:35 | 40.36914 | 116.65488 | 4483 ft | 238 kts | 266° |
| 2026-05-01 11:36 | 40.36761 | 116.63336 | 4337 ft | 238 kts | 260° |
| 2026-05-01 11:36 | 40.36556 | 116.61181 | 4189 ft | 238 kts | 261° |
| 2026-05-01 11:36 | 40.36161 | 116.59100 | 4044 ft | 233 kts | 237° |
| 2026-05-01 11:36 | 40.35025 | 116.57679 | 3865 ft | 227 kts | 203° |
| 2026-05-01 11:37 | 40.33501 | 116.57359 | 3510 ft | 223 kts | 173° |
| 2026-05-01 11:37 | 40.31956 | 116.57617 | 3176 ft | 224 kts | 172° |
| 2026-05-01 11:37 | 40.30441 | 116.57879 | 3011 ft | 213 kts | 172° |
| 2026-05-01 11:37 | 40.29006 | 116.58114 | 3007 ft | 205 kts | 172° |
| 2026-05-01 11:38 | 40.27619 | 116.58335 | 3010 ft | 204 kts | 172° |
| 2026-05-01 11:38 | 40.26219 | 116.58557 | 3010 ft | 202 kts | 172° |
| 2026-05-01 11:38 | 40.24850 | 116.58773 | 3014 ft | 190 kts | 172° |
| 2026-05-01 11:38 | 40.23546 | 116.58980 | 2961 ft | 187 kts | 172° |
| 2026-05-01 11:39 | 40.22272 | 116.59181 | 2763 ft | 183 kts | 172° |
| 2026-05-01 11:39 | 40.21016 | 116.59380 | 2528 ft | 181 kts | 172° |
| 2026-05-01 11:39 | 40.19764 | 116.59578 | 2288 ft | 179 kts | 172° |
| 2026-05-01 11:39 | 40.18563 | 116.59767 | 2040 ft | 169 kts | 171° |
| 2026-05-01 11:40 | 40.17437 | 116.59945 | 1804 ft | 159 kts | 172° |
| 2026-05-01 11:40 | 40.16369 | 116.60113 | 1581 ft | 149 kts | 172° |
| 2026-05-01 11:40 | 40.15364 | 116.60272 | 1377 ft | 143 kts | 171° |
| 2026-05-01 11:40 | 40.14383 | 116.60427 | 1170 ft | 141 kts | 172° |
| 2026-05-01 11:41 | 40.13411 | 116.60581 | 976 ft | 140 kts | 170° |
| 2026-05-01 11:41 | 40.12434 | 116.60735 | 779 ft | 143 kts | 173° |
| 2026-05-01 11:41 | 40.11444 | 116.60891 | 602 ft | 143 kts | 171° |
| 2026-05-01 11:41 | 40.10460 | 116.61046 | 391 ft | 144 kts | 171° |
| 2026-05-01 11:42 | 40.09466 | 116.61203 | 202 ft | 144 kts | 172° |
| 2026-05-01 11:42 | 40.08536 | 116.61354 | 122 ft | 111 kts | 173° |
| 2026-05-01 11:42 | 40.07955 | 116.61445 | 120 ft | 59 kts | 173° |
| 2026-05-01 11:42 | 40.07677 | 116.61489 | 122 ft | 26 kts | 173° |
| 2026-05-01 11:43 | 40.07503 | 116.61515 | 123 ft | 24 kts | 174° |
| 2026-05-01 11:43 | 40.07338 | 116.61507 | 122 ft | 23 kts | 191° |
| 2026-05-01 11:43 | 40.07187 | 116.61436 | 121 ft | 23 kts | 203° |
| 2026-05-01 11:44 | 40.06923 | 116.61370 | 122 ft | 14 kts | 173° |
| 2026-05-01 11:44 | 40.06877 | 116.61288 | 121 ft | 12 kts | 262° |
| 2026-05-01 11:44 | 40.06867 | 116.61184 | 120 ft | 11 kts | 263° |
| 2026-05-01 11:44 | 40.06858 | 116.61088 | 124 ft | 10 kts | 263° |
| 2026-05-01 11:45 | 40.06850 | 116.61001 | 124 ft | 10 kts | 263° |
| 2026-05-01 11:45 | 40.06840 | 116.60886 | 120 ft | 16 kts | 263° |
| 2026-05-01 11:45 | 40.06825 | 116.60722 | 122 ft | 20 kts | 263° |
| 2026-05-01 11:45 | 40.06808 | 116.60548 | 121 ft | 19 kts | 263° |
| 2026-05-01 11:46 | 40.06836 | 116.60431 | 121 ft | 10 kts | 0° |
| 2026-05-01 11:46 | 40.06900 | 116.60419 | 121 ft | 9 kts | 352° |
| 2026-05-01 11:46 | 40.06971 | 116.60407 | 122 ft | 11 kts | 353° |
| 2026-05-01 11:46 | 40.07052 | 116.60395 | 121 ft | 13 kts | 353° |
| 2026-05-01 11:47 | 40.07147 | 116.60380 | 121 ft | 15 kts | 353° |
| 2026-05-01 11:47 | 40.07252 | 116.60364 | 122 ft | 16 kts | 353° |
| 2026-05-01 11:47 | 40.07371 | 116.60345 | 119 ft | 18 kts | 353° |
| 2026-05-01 11:47 | 40.07497 | 116.60313 | 120 ft | 17 kts | 334° |
| 2026-05-01 11:48 | 40.07562 | 116.60268 | 121 ft | 7 kts | 8° |
| 2026-05-01 11:48 | 40.07595 | 116.60304 | 121 ft | 6 kts | 45° |
| 2026-05-01 11:48 | 40.07622 | 116.60335 | 122 ft | 3 kts | 40° |
| 2026-05-01 11:48 | 40.07623 | 116.60336 | 122 ft | 0 kts | 39° |
| 2026-05-01 11:49 | 40.07625 | 116.60338 | 123 ft | 1 kts | 35° |
| 2026-05-01 11:49 | 40.07626 | 116.60340 | 123 ft | 0 kts | 41° |
| 2026-05-01 11:49 | 40.07625 | 116.60338 | 123 ft | 1 kts | 41° |
| 2026-05-01 11:49 | 40.07620 | 116.60332 | 122 ft | 1 kts | 41° |
| 2026-05-01 11:50 | 40.07608 | 116.60319 | 121 ft | 4 kts | 41° |
| 2026-05-01 11:50 | 40.07604 | 116.60314 | 120 ft | 0 kts | 41° |
| 2026-05-01 11:50 | 40.07619 | 116.60331 | 122 ft | 4 kts | 41° |
| 2026-05-01 11:50 | 40.07624 | 116.60337 | 123 ft | 0 kts | 41° |